sensor_id;sensor_type;location;lat;lon;timestamp;pressure;altitude;pressure_sealevel;temperature;humidity
34065;BME280;20339;49.754;20.158;2023-11-19T00:00:44;97123.15;;;0.02;100.00
34065;BME280;20339;49.754;20.158;2023-11-19T00:03:35;97117.70;;;0.01;100.00
34065;BME280;20339;49.754;20.158;2023-11-19T00:06:07;97115.05;;;-0.02;100.00
34065;BME280;20339;49.754;20.158;2023-11-19T00:08:41;97109.95;;;0.00;100.00
34065;BME280;20339;49.754;20.158;2023-11-19T00:11:15;97099.73;;;0.00;100.00
34065;BME280;20339;49.754;20.158;2023-11-19T00:13:46;97098.63;;;-0.04;100.00
34065;BME280;20339;49.754;20.158;2023-11-19T00:16:18;97101.67;;;-0.07;100.00
34065;BME280;20339;49.754;20.158;2023-11-19T00:18:49;97094.85;;;-0.09;100.00
34065;BME280;20339;49.754;20.158;2023-11-19T00:21:21;97090.33;;;-0.08;100.00
34065;BME280;20339;49.754;20.158;2023-11-19T00:23:55;97088.80;;;-0.06;100.00
34065;BME280;20339;49.754;20.158;2023-11-19T00:26:29;97090.12;;;-0.03;100.00
34065;BME280;20339;49.754;20.158;2023-11-19T00:29:04;97085.36;;;-0.01;100.00
34065;BME280;20339;49.754;20.158;2023-11-19T00:31:37;97089.08;;;-0.05;100.00
34065;BME280;20339;49.754;20.158;2023-11-19T00:34:09;97089.09;;;-0.11;100.00
34065;BME280;20339;49.754;20.158;2023-11-19T00:36:40;97091.10;;;-0.13;100.00
34065;BME280;20339;49.754;20.158;2023-11-19T00:39:13;97088.73;;;-0.13;100.00
34065;BME280;20339;49.754;20.158;2023-11-19T00:41:46;97080.91;;;-0.10;100.00
34065;BME280;20339;49.754;20.158;2023-11-19T00:44:18;97076.85;;;-0.06;100.00
34065;BME280;20339;49.754;20.158;2023-11-19T00:46:50;97071.44;;;-0.03;100.00
34065;BME280;20339;49.754;20.158;2023-11-19T00:49:22;97064.11;;;0.00;100.00
34065;BME280;20339;49.754;20.158;2023-11-19T00:51:53;97057.02;;;0.01;100.00
34065;BME280;20339;49.754;20.158;2023-11-19T00:54:25;97050.53;;;0.03;100.00
34065;BME280;20339;49.754;20.158;2023-11-19T00:57:00;97044.70;;;-0.05;100.00
34065;BME280;20339;49.754;20.158;2023-11-19T00:59:32;97045.03;;;-0.11;100.00
34065;BME280;20339;49.754;20.158;2023-11-19T01:02:03;97045.95;;;-0.11;100.00
34065;BME280;20339;49.754;20.158;2023-11-19T01:04:39;97044.78;;;-0.10;100.00
34065;BME280;20339;49.754;20.158;2023-11-19T01:07:10;97042.83;;;-0.10;100.00
34065;BME280;20339;49.754;20.158;2023-11-19T01:09:44;97034.48;;;-0.15;100.00
34065;BME280;20339;49.754;20.158;2023-11-19T01:12:16;97023.08;;;-0.18;100.00
34065;BME280;20339;49.754;20.158;2023-11-19T01:14:47;97019.31;;;-0.17;100.00
34065;BME280;20339;49.754;20.158;2023-11-19T01:17:19;97021.55;;;-0.15;100.00
34065;BME280;20339;49.754;20.158;2023-11-19T01:19:50;97016.41;;;-0.11;100.00
34065;BME280;20339;49.754;20.158;2023-11-19T01:22:21;97015.55;;;-0.08;100.00
34065;BME280;20339;49.754;20.158;2023-11-19T01:24:53;97014.63;;;-0.05;100.00
34065;BME280;20339;49.754;20.158;2023-11-19T01:27:25;97015.95;;;-0.03;100.00
34065;BME280;20339;49.754;20.158;2023-11-19T01:29:57;97021.36;;;-0.02;100.00
34065;BME280;20339;49.754;20.158;2023-11-19T01:32:30;97017.20;;;-0.00;100.00
34065;BME280;20339;49.754;20.158;2023-11-19T01:35:02;97019.86;;;0.03;100.00
34065;BME280;20339;49.754;20.158;2023-11-19T01:37:34;97024.51;;;0.04;100.00
34065;BME280;20339;49.754;20.158;2023-11-19T01:40:07;97025.17;;;0.06;100.00
34065;BME280;20339;49.754;20.158;2023-11-19T01:42:42;97021.73;;;0.08;100.00
34065;BME280;20339;49.754;20.158;2023-11-19T01:45:27;97011.05;;;0.10;100.00
34065;BME280;20339;49.754;20.158;2023-11-19T01:48:02;97005.95;;;0.12;100.00
34065;BME280;20339;49.754;20.158;2023-11-19T01:50:34;97006.10;;;0.13;100.00
34065;BME280;20339;49.754;20.158;2023-11-19T01:53:06;97001.81;;;0.11;100.00
34065;BME280;20339;49.754;20.158;2023-11-19T01:55:38;96998.44;;;0.13;100.00
34065;BME280;20339;49.754;20.158;2023-11-19T01:58:10;96991.91;;;0.13;100.00
34065;BME280;20339;49.754;20.158;2023-11-19T02:00:42;96993.30;;;0.09;100.00
34065;BME280;20339;49.754;20.158;2023-11-19T02:03:15;96988.28;;;0.09;100.00
34065;BME280;20339;49.754;20.158;2023-11-19T02:05:49;96983.66;;;0.10;100.00
34065;BME280;20339;49.754;20.158;2023-11-19T02:08:22;96986.50;;;0.13;100.00
34065;BME280;20339;49.754;20.158;2023-11-19T02:10:53;96977.44;;;0.13;100.00
34065;BME280;20339;49.754;20.158;2023-11-19T02:13:27;96980.58;;;0.09;100.00
34065;BME280;20339;49.754;20.158;2023-11-19T02:15:58;96972.52;;;0.08;100.00
34065;BME280;20339;49.754;20.158;2023-11-19T02:18:30;96958.97;;;0.07;100.00
34065;BME280;20339;49.754;20.158;2023-11-19T02:21:04;96958.10;;;0.00;100.00
34065;BME280;20339;49.754;20.158;2023-11-19T02:23:36;96955.54;;;-0.07;100.00
34065;BME280;20339;49.754;20.158;2023-11-19T02:26:17;96959.18;;;-0.07;100.00
34065;BME280;20339;49.754;20.158;2023-11-19T02:28:49;96959.38;;;-0.04;100.00
34065;BME280;20339;49.754;20.158;2023-11-19T02:31:20;96950.39;;;-0.02;100.00
34065;BME280;20339;49.754;20.158;2023-11-19T02:33:52;96943.60;;;0.01;100.00
34065;BME280;20339;49.754;20.158;2023-11-19T02:36:24;96934.61;;;0.01;100.00
34065;BME280;20339;49.754;20.158;2023-11-19T02:38:58;96925.59;;;0.01;100.00
34065;BME280;20339;49.754;20.158;2023-11-19T02:41:32;96913.27;;;0.02;100.00
34065;BME280;20339;49.754;20.158;2023-11-19T02:44:06;96912.88;;;-0.05;100.00
34065;BME280;20339;49.754;20.158;2023-11-19T02:46:37;96907.73;;;-0.14;100.00
34065;BME280;20339;49.754;20.158;2023-11-19T02:49:08;96907.45;;;-0.23;100.00
34065;BME280;20339;49.754;20.158;2023-11-19T02:51:39;96900.29;;;-0.28;100.00
34065;BME280;20339;49.754;20.158;2023-11-19T02:54:10;96890.10;;;-0.31;100.00
34065;BME280;20339;49.754;20.158;2023-11-19T02:56:45;96882.81;;;-0.33;100.00
34065;BME280;20339;49.754;20.158;2023-11-19T02:59:17;96884.77;;;-0.33;100.00
34065;BME280;20339;49.754;20.158;2023-11-19T03:01:57;96885.65;;;-0.29;100.00
34065;BME280;20339;49.754;20.158;2023-11-19T03:04:29;96884.25;;;-0.23;100.00
34065;BME280;20339;49.754;20.158;2023-11-19T03:07:00;96874.65;;;-0.19;100.00
34065;BME280;20339;49.754;20.158;2023-11-19T03:09:32;96869.44;;;-0.14;100.00
34065;BME280;20339;49.754;20.158;2023-11-19T03:12:04;96864.19;;;-0.11;100.00
34065;BME280;20339;49.754;20.158;2023-11-19T03:14:36;96854.44;;;-0.09;100.00
34065;BME280;20339;49.754;20.158;2023-11-19T03:17:07;96849.98;;;-0.08;100.00
34065;BME280;20339;49.754;20.158;2023-11-19T03:19:39;96844.13;;;-0.06;100.00
34065;BME280;20339;49.754;20.158;2023-11-19T03:22:10;96838.73;;;-0.04;100.00
34065;BME280;20339;49.754;20.158;2023-11-19T03:24:41;96838.33;;;-0.02;100.00
34065;BME280;20339;49.754;20.158;2023-11-19T03:27:15;96828.79;;;-0.01;100.00
34065;BME280;20339;49.754;20.158;2023-11-19T03:29:46;96830.95;;;0.01;100.00
34065;BME280;20339;49.754;20.158;2023-11-19T03:32:18;96832.40;;;0.03;100.00
34065;BME280;20339;49.754;20.158;2023-11-19T03:34:49;96831.00;;;0.03;100.00
34065;BME280;20339;49.754;20.158;2023-11-19T03:37:20;96833.76;;;0.03;100.00
34065;BME280;20339;49.754;20.158;2023-11-19T03:39:53;96832.71;;;0.04;100.00
34065;BME280;20339;49.754;20.158;2023-11-19T03:42:29;96828.25;;;0.06;100.00
34065;BME280;20339;49.754;20.158;2023-11-19T03:45:00;96819.34;;;0.08;100.00
34065;BME280;20339;49.754;20.158;2023-11-19T03:47:33;96814.16;;;0.09;100.00
34065;BME280;20339;49.754;20.158;2023-11-19T03:50:08;96803.98;;;0.09;100.00
34065;BME280;20339;49.754;20.158;2023-11-19T03:52:39;96803.97;;;0.09;100.00
34065;BME280;20339;49.754;20.158;2023-11-19T03:55:10;96801.52;;;0.10;100.00
34065;BME280;20339;49.754;20.158;2023-11-19T03:57:42;96801.04;;;0.10;100.00
34065;BME280;20339;49.754;20.158;2023-11-19T04:00:14;96799.66;;;0.12;100.00
34065;BME280;20339;49.754;20.158;2023-11-19T04:02:45;96790.14;;;0.09;100.00
34065;BME280;20339;49.754;20.158;2023-11-19T04:05:16;96776.94;;;0.04;100.00
34065;BME280;20339;49.754;20.158;2023-11-19T04:07:48;96779.99;;;0.00;100.00
34065;BME280;20339;49.754;20.158;2023-11-19T04:10:19;96780.31;;;-0.02;100.00
34065;BME280;20339;49.754;20.158;2023-11-19T04:12:52;96771.44;;;-0.06;100.00
34065;BME280;20339;49.754;20.158;2023-11-19T04:15:23;96757.88;;;-0.11;100.00
34065;BME280;20339;49.754;20.158;2023-11-19T04:17:53;96754.80;;;-0.16;100.00
34065;BME280;20339;49.754;20.158;2023-11-19T04:20:24;96757.30;;;-0.21;100.00
34065;BME280;20339;49.754;20.158;2023-11-19T04:22:56;96758.14;;;-0.21;100.00
34065;BME280;20339;49.754;20.158;2023-11-19T04:25:27;96744.02;;;-0.23;100.00
34065;BME280;20339;49.754;20.158;2023-11-19T04:27:58;96733.45;;;-0.25;100.00
34065;BME280;20339;49.754;20.158;2023-11-19T04:30:30;96731.29;;;-0.26;100.00
34065;BME280;20339;49.754;20.158;2023-11-19T04:33:02;96729.44;;;-0.29;100.00
34065;BME280;20339;49.754;20.158;2023-11-19T04:35:33;96721.52;;;-0.31;100.00
34065;BME280;20339;49.754;20.158;2023-11-19T04:38:04;96717.26;;;-0.30;100.00
34065;BME280;20339;49.754;20.158;2023-11-19T04:40:35;96716.94;;;-0.32;100.00
34065;BME280;20339;49.754;20.158;2023-11-19T04:43:07;96722.84;;;-0.33;100.00
34065;BME280;20339;49.754;20.158;2023-11-19T04:45:47;96719.83;;;-0.33;100.00
34065;BME280;20339;49.754;20.158;2023-11-19T04:48:18;96714.70;;;-0.32;100.00
34065;BME280;20339;49.754;20.158;2023-11-19T04:50:49;96702.96;;;-0.33;100.00
34065;BME280;20339;49.754;20.158;2023-11-19T04:53:22;96691.86;;;-0.33;100.00
34065;BME280;20339;49.754;20.158;2023-11-19T04:55:53;96681.77;;;-0.34;100.00
34065;BME280;20339;49.754;20.158;2023-11-19T04:58:24;96674.14;;;-0.38;100.00
34065;BME280;20339;49.754;20.158;2023-11-19T05:00:55;96674.20;;;-0.39;100.00
34065;BME280;20339;49.754;20.158;2023-11-19T05:03:26;96672.97;;;-0.42;100.00
34065;BME280;20339;49.754;20.158;2023-11-19T05:05:57;96665.50;;;-0.43;100.00
34065;BME280;20339;49.754;20.158;2023-11-19T05:08:31;96666.46;;;-0.44;100.00
34065;BME280;20339;49.754;20.158;2023-11-19T05:11:05;96667.55;;;-0.43;100.00
34065;BME280;20339;49.754;20.158;2023-11-19T05:13:36;96673.52;;;-0.41;100.00
34065;BME280;20339;49.754;20.158;2023-11-19T05:16:08;96680.10;;;-0.40;100.00
34065;BME280;20339;49.754;20.158;2023-11-19T05:18:39;96683.49;;;-0.40;100.00
34065;BME280;20339;49.754;20.158;2023-11-19T05:21:10;96693.98;;;-0.38;100.00
34065;BME280;20339;49.754;20.158;2023-11-19T05:23:41;96698.46;;;-0.38;100.00
34065;BME280;20339;49.754;20.158;2023-11-19T05:26:20;96694.73;;;-0.38;100.00
34065;BME280;20339;49.754;20.158;2023-11-19T05:28:52;96677.04;;;-0.40;100.00
34065;BME280;20339;49.754;20.158;2023-11-19T05:31:23;96670.75;;;-0.40;100.00
34065;BME280;20339;49.754;20.158;2023-11-19T05:33:54;96667.91;;;-0.40;100.00
34065;BME280;20339;49.754;20.158;2023-11-19T05:36:25;96664.35;;;-0.42;100.00
34065;BME280;20339;49.754;20.158;2023-11-19T05:38:58;96670.88;;;-0.44;100.00
34065;BME280;20339;49.754;20.158;2023-11-19T05:41:30;96672.52;;;-0.43;99.97
34065;BME280;20339;49.754;20.158;2023-11-19T05:44:01;96663.71;;;-0.41;100.00
34065;BME280;20339;49.754;20.158;2023-11-19T05:46:35;96657.95;;;-0.41;99.99
34065;BME280;20339;49.754;20.158;2023-11-19T05:49:10;96662.39;;;-0.43;99.97
34065;BME280;20339;49.754;20.158;2023-11-19T05:51:41;96665.19;;;-0.46;99.87
34065;BME280;20339;49.754;20.158;2023-11-19T05:54:15;96664.73;;;-0.47;99.86
34065;BME280;20339;49.754;20.158;2023-11-19T05:56:50;96662.48;;;-0.48;99.99
34065;BME280;20339;49.754;20.158;2023-11-19T05:59:23;96664.35;;;-0.46;99.64
34065;BME280;20339;49.754;20.158;2023-11-19T06:01:54;96664.30;;;-0.46;99.62
34065;BME280;20339;49.754;20.158;2023-11-19T06:04:26;96655.81;;;-0.44;99.38
34065;BME280;20339;49.754;20.158;2023-11-19T06:06:57;96642.79;;;-0.45;99.64
34065;BME280;20339;49.754;20.158;2023-11-19T06:09:31;96629.45;;;-0.45;99.73
34065;BME280;20339;49.754;20.158;2023-11-19T06:12:04;96629.70;;;-0.41;99.76
34065;BME280;20339;49.754;20.158;2023-11-19T06:14:36;96632.08;;;-0.39;99.40
34065;BME280;20339;49.754;20.158;2023-11-19T06:17:07;96629.95;;;-0.38;99.31
34065;BME280;20339;49.754;20.158;2023-11-19T06:19:40;96626.93;;;-0.37;99.00
34065;BME280;20339;49.754;20.158;2023-11-19T06:22:11;96626.00;;;-0.35;99.25
34065;BME280;20339;49.754;20.158;2023-11-19T06:24:42;96622.69;;;-0.31;99.21
34065;BME280;20339;49.754;20.158;2023-11-19T06:27:14;96629.05;;;-0.25;99.20
34065;BME280;20339;49.754;20.158;2023-11-19T06:29:45;96633.15;;;-0.22;98.88
34065;BME280;20339;49.754;20.158;2023-11-19T06:32:16;96634.83;;;-0.22;98.65
34065;BME280;20339;49.754;20.158;2023-11-19T06:34:47;96638.05;;;-0.24;98.61
34065;BME280;20339;49.754;20.158;2023-11-19T06:37:18;96640.02;;;-0.25;98.33
34065;BME280;20339;49.754;20.158;2023-11-19T06:39:49;96639.85;;;-0.24;98.34
34065;BME280;20339;49.754;20.158;2023-11-19T06:42:23;96651.05;;;-0.20;98.26
34065;BME280;20339;49.754;20.158;2023-11-19T06:44:54;96653.09;;;-0.12;98.41
34065;BME280;20339;49.754;20.158;2023-11-19T06:47:28;96644.08;;;-0.06;98.28
34065;BME280;20339;49.754;20.158;2023-11-19T06:49:59;96637.86;;;-0.06;98.18
34065;BME280;20339;49.754;20.158;2023-11-19T06:52:30;96640.72;;;-0.08;98.28
34065;BME280;20339;49.754;20.158;2023-11-19T06:55:05;96644.38;;;-0.09;98.34
34065;BME280;20339;49.754;20.158;2023-11-19T06:57:36;96631.25;;;-0.07;98.05
34065;BME280;20339;49.754;20.158;2023-11-19T07:00:09;96608.31;;;-0.06;98.10
34065;BME280;20339;49.754;20.158;2023-11-19T07:02:41;96608.11;;;-0.01;98.04
34065;BME280;20339;49.754;20.158;2023-11-19T07:05:16;96609.09;;;0.10;98.31
34065;BME280;20339;49.754;20.158;2023-11-19T07:07:47;96603.91;;;0.25;98.28
34065;BME280;20339;49.754;20.158;2023-11-19T07:10:19;96601.38;;;0.33;98.07
34065;BME280;20339;49.754;20.158;2023-11-19T07:12:50;96595.61;;;0.46;98.11
34065;BME280;20339;49.754;20.158;2023-11-19T07:15:21;96588.08;;;0.56;98.00
34065;BME280;20339;49.754;20.158;2023-11-19T07:17:52;96567.95;;;0.63;97.92
34065;BME280;20339;49.754;20.158;2023-11-19T07:20:24;96564.70;;;0.64;97.38
34065;BME280;20339;49.754;20.158;2023-11-19T07:22:56;96564.17;;;0.66;97.36
34065;BME280;20339;49.754;20.158;2023-11-19T07:25:27;96554.42;;;0.66;96.91
34065;BME280;20339;49.754;20.158;2023-11-19T07:27:58;96550.29;;;0.60;96.99
34065;BME280;20339;49.754;20.158;2023-11-19T07:30:31;96545.82;;;0.61;97.06
34065;BME280;20339;49.754;20.158;2023-11-19T07:33:02;96553.67;;;0.66;96.99
34065;BME280;20339;49.754;20.158;2023-11-19T07:35:34;96541.73;;;0.70;97.10
34065;BME280;20339;49.754;20.158;2023-11-19T07:38:05;96539.47;;;0.74;97.20
34065;BME280;20339;49.754;20.158;2023-11-19T07:40:37;96539.14;;;0.77;97.12
34065;BME280;20339;49.754;20.158;2023-11-19T07:43:08;96540.91;;;0.80;97.14
34065;BME280;20339;49.754;20.158;2023-11-19T07:45:39;96543.56;;;0.80;96.61
34065;BME280;20339;49.754;20.158;2023-11-19T07:48:14;96551.05;;;0.78;96.44
34065;BME280;20339;49.754;20.158;2023-11-19T07:50:45;96552.48;;;0.64;96.06
34065;BME280;20339;49.754;20.158;2023-11-19T07:53:16;96552.93;;;0.57;96.07
34065;BME280;20339;49.754;20.158;2023-11-19T07:55:47;96556.98;;;0.57;96.08
34065;BME280;20339;49.754;20.158;2023-11-19T07:58:21;96559.49;;;0.70;96.34
34065;BME280;20339;49.754;20.158;2023-11-19T08:00:52;96558.52;;;0.78;96.16
34065;BME280;20339;49.754;20.158;2023-11-19T08:03:23;96552.23;;;0.84;95.96
34065;BME280;20339;49.754;20.158;2023-11-19T08:05:56;96558.04;;;0.86;95.94
34065;BME280;20339;49.754;20.158;2023-11-19T08:08:27;96555.58;;;0.97;96.05
34065;BME280;20339;49.754;20.158;2023-11-19T08:11:00;96555.99;;;1.06;96.08
34065;BME280;20339;49.754;20.158;2023-11-19T08:13:31;96557.31;;;1.14;95.96
34065;BME280;20339;49.754;20.158;2023-11-19T08:16:02;96560.70;;;1.26;96.05
34065;BME280;20339;49.754;20.158;2023-11-19T08:18:33;96549.53;;;1.38;95.90
34065;BME280;20339;49.754;20.158;2023-11-19T08:21:05;96537.02;;;1.51;95.71
34065;BME280;20339;49.754;20.158;2023-11-19T08:23:37;96530.15;;;1.46;95.25
34065;BME280;20339;49.754;20.158;2023-11-19T08:26:08;96526.90;;;1.38;94.94
34065;BME280;20339;49.754;20.158;2023-11-19T08:28:40;96529.29;;;1.35;94.74
34065;BME280;20339;49.754;20.158;2023-11-19T08:31:11;96519.70;;;1.34;94.62
34065;BME280;20339;49.754;20.158;2023-11-19T08:33:43;96512.34;;;1.32;94.32
34065;BME280;20339;49.754;20.158;2023-11-19T08:36:18;96515.73;;;1.26;94.09
34065;BME280;20339;49.754;20.158;2023-11-19T08:38:49;96508.83;;;1.17;93.71
34065;BME280;20339;49.754;20.158;2023-11-19T08:41:22;96495.70;;;1.20;94.06
34065;BME280;20339;49.754;20.158;2023-11-19T08:43:53;96487.05;;;1.27;93.85
34065;BME280;20339;49.754;20.158;2023-11-19T08:46:25;96483.02;;;1.27;93.78
34065;BME280;20339;49.754;20.158;2023-11-19T08:48:58;96484.06;;;1.29;93.60
34065;BME280;20339;49.754;20.158;2023-11-19T08:51:30;96488.21;;;1.26;93.67
34065;BME280;20339;49.754;20.158;2023-11-19T08:54:02;96495.21;;;1.25;93.54
34065;BME280;20339;49.754;20.158;2023-11-19T08:56:33;96489.86;;;1.21;93.41
34065;BME280;20339;49.754;20.158;2023-11-19T08:59:05;96484.39;;;1.11;92.97
34065;BME280;20339;49.754;20.158;2023-11-19T09:01:36;96476.00;;;1.06;93.28
34065;BME280;20339;49.754;20.158;2023-11-19T09:04:07;96478.07;;;1.01;93.19
34065;BME280;20339;49.754;20.158;2023-11-19T09:06:38;96473.99;;;0.96;92.85
34065;BME280;20339;49.754;20.158;2023-11-19T09:09:10;96472.09;;;0.92;92.88
34065;BME280;20339;49.754;20.158;2023-11-19T09:11:41;96476.41;;;0.90;92.58
34065;BME280;20339;49.754;20.158;2023-11-19T09:14:12;96478.06;;;0.96;92.91
34065;BME280;20339;49.754;20.158;2023-11-19T09:16:45;96469.66;;;1.01;92.52
34065;BME280;20339;49.754;20.158;2023-11-19T09:19:16;96464.11;;;1.00;92.06
34065;BME280;20339;49.754;20.158;2023-11-19T09:21:48;96464.45;;;1.08;92.31
34065;BME280;20339;49.754;20.158;2023-11-19T09:24:20;96461.55;;;1.12;92.32
34065;BME280;20339;49.754;20.158;2023-11-19T09:26:51;96460.09;;;1.12;92.18
34065;BME280;20339;49.754;20.158;2023-11-19T09:29:24;96457.73;;;1.11;92.03
34065;BME280;20339;49.754;20.158;2023-11-19T09:31:55;96454.84;;;1.08;92.03
34065;BME280;20339;49.754;20.158;2023-11-19T09:34:26;96446.29;;;1.08;91.76
34065;BME280;20339;49.754;20.158;2023-11-19T09:36:57;96441.70;;;1.06;91.82
34065;BME280;20339;49.754;20.158;2023-11-19T09:39:29;96434.13;;;1.06;91.81
34065;BME280;20339;49.754;20.158;2023-11-19T09:42:00;96433.19;;;1.06;91.94
34065;BME280;20339;49.754;20.158;2023-11-19T09:44:33;96425.64;;;1.09;92.13
34065;BME280;20339;49.754;20.158;2023-11-19T09:47:05;96421.21;;;1.12;92.09
34065;BME280;20339;49.754;20.158;2023-11-19T09:49:38;96410.62;;;1.17;92.36
34065;BME280;20339;49.754;20.158;2023-11-19T09:52:09;96403.42;;;1.23;92.51
34065;BME280;20339;49.754;20.158;2023-11-19T09:54:41;96401.41;;;1.32;92.78
34065;BME280;20339;49.754;20.158;2023-11-19T09:57:14;96400.25;;;1.34;92.51
34065;BME280;20339;49.754;20.158;2023-11-19T09:59:47;96401.86;;;1.34;92.46
34065;BME280;20339;49.754;20.158;2023-11-19T10:02:19;96397.23;;;1.34;92.29
34065;BME280;20339;49.754;20.158;2023-11-19T10:04:51;96387.30;;;1.39;92.29
34065;BME280;20339;49.754;20.158;2023-11-19T10:07:24;96377.40;;;1.41;92.29
34065;BME280;20339;49.754;20.158;2023-11-19T10:09:56;96366.73;;;1.46;92.09
34065;BME280;20339;49.754;20.158;2023-11-19T10:12:27;96359.73;;;1.47;91.68
34065;BME280;20339;49.754;20.158;2023-11-19T10:14:59;96362.52;;;1.46;91.28
34065;BME280;20339;49.754;20.158;2023-11-19T10:17:35;96361.17;;;1.49;91.53
34065;BME280;20339;49.754;20.158;2023-11-19T10:20:09;96357.54;;;1.53;91.61
34065;BME280;20339;49.754;20.158;2023-11-19T10:22:41;96358.61;;;1.54;91.41
34065;BME280;20339;49.754;20.158;2023-11-19T10:25:24;96358.63;;;1.56;91.53
34065;BME280;20339;49.754;20.158;2023-11-19T10:27:56;96352.43;;;1.65;91.74
34065;BME280;20339;49.754;20.158;2023-11-19T10:30:28;96350.94;;;1.75;91.75
34065;BME280;20339;49.754;20.158;2023-11-19T10:33:08;96343.98;;;1.85;91.87
34065;BME280;20339;49.754;20.158;2023-11-19T10:35:52;96332.20;;;1.94;91.31
34065;BME280;20339;49.754;20.158;2023-11-19T10:38:24;96334.96;;;2.04;90.62
34065;BME280;20339;49.754;20.158;2023-11-19T10:40:56;96333.86;;;2.14;90.75
34065;BME280;20339;49.754;20.158;2023-11-19T10:43:27;96322.59;;;2.25;90.79
34065;BME280;20339;49.754;20.158;2023-11-19T10:46:10;96329.16;;;2.30;90.25
34065;BME280;20339;49.754;20.158;2023-11-19T10:48:42;96318.14;;;2.31;89.86
34065;BME280;20339;49.754;20.158;2023-11-19T10:51:17;96311.34;;;2.34;89.79
34065;BME280;20339;49.754;20.158;2023-11-19T10:53:51;96305.48;;;2.34;89.34
34065;BME280;20339;49.754;20.158;2023-11-19T10:56:28;96294.68;;;2.30;89.06
34065;BME280;20339;49.754;20.158;2023-11-19T10:59:02;96280.55;;;2.32;89.10
34065;BME280;20339;49.754;20.158;2023-11-19T11:01:38;96271.79;;;2.39;89.48
34065;BME280;20339;49.754;20.158;2023-11-19T11:04:15;96269.39;;;2.50;89.52
34065;BME280;20339;49.754;20.158;2023-11-19T11:06:50;96252.13;;;2.55;89.52
34065;BME280;20339;49.754;20.158;2023-11-19T11:09:22;96253.48;;;2.55;89.06
34065;BME280;20339;49.754;20.158;2023-11-19T11:11:54;96244.18;;;2.47;88.36
34065;BME280;20339;49.754;20.158;2023-11-19T11:14:25;96237.27;;;2.35;88.09
34065;BME280;20339;49.754;20.158;2023-11-19T11:16:58;96234.87;;;2.28;87.99
34065;BME280;20339;49.754;20.158;2023-11-19T11:19:29;96220.34;;;2.21;87.95
34065;BME280;20339;49.754;20.158;2023-11-19T11:22:00;96215.96;;;2.16;87.91
34065;BME280;20339;49.754;20.158;2023-11-19T11:24:48;96196.79;;;2.14;87.50
34065;BME280;20339;49.754;20.158;2023-11-19T11:27:43;96188.90;;;2.14;87.42
34065;BME280;20339;49.754;20.158;2023-11-19T11:30:35;96184.59;;;2.16;87.37
34065;BME280;20339;49.754;20.158;2023-11-19T11:33:26;96180.38;;;2.17;87.00
34065;BME280;20339;49.754;20.158;2023-11-19T11:36:13;96186.95;;;2.13;85.74
34065;BME280;20339;49.754;20.158;2023-11-19T11:38:50;96191.86;;;2.08;85.46
34065;BME280;20339;49.754;20.158;2023-11-19T11:41:24;96186.17;;;2.05;85.45
34065;BME280;20339;49.754;20.158;2023-11-19T11:43:56;96190.93;;;2.02;85.63
34065;BME280;20339;49.754;20.158;2023-11-19T11:46:55;96190.44;;;2.00;85.82
34065;BME280;20339;49.754;20.158;2023-11-19T11:49:30;96177.48;;;1.98;86.00
34065;BME280;20339;49.754;20.158;2023-11-19T11:52:03;96179.10;;;1.96;86.23
34065;BME280;20339;49.754;20.158;2023-11-19T11:54:37;96173.39;;;1.89;86.57
34065;BME280;20339;49.754;20.158;2023-11-19T11:57:13;96158.98;;;1.84;86.96
34065;BME280;20339;49.754;20.158;2023-11-19T11:59:49;96163.59;;;1.73;87.52
34065;BME280;20339;49.754;20.158;2023-11-19T12:02:21;96165.64;;;1.66;88.11
34065;BME280;20339;49.754;20.158;2023-11-19T12:04:54;96162.35;;;1.61;88.84
34065;BME280;20339;49.754;20.158;2023-11-19T12:07:26;96162.60;;;1.57;89.48
34065;BME280;20339;49.754;20.158;2023-11-19T12:10:08;96162.51;;;1.55;89.66
34065;BME280;20339;49.754;20.158;2023-11-19T12:12:42;96163.31;;;1.51;89.93
34065;BME280;20339;49.754;20.158;2023-11-19T12:15:14;96162.92;;;1.47;90.39
34065;BME280;20339;49.754;20.158;2023-11-19T12:17:48;96160.84;;;1.42;90.73
34065;BME280;20339;49.754;20.158;2023-11-19T12:20:21;96154.48;;;1.36;91.07
34065;BME280;20339;49.754;20.158;2023-11-19T12:22:53;96145.38;;;1.27;91.90
34065;BME280;20339;49.754;20.158;2023-11-19T12:25:25;96147.35;;;1.21;92.12
34065;BME280;20339;49.754;20.158;2023-11-19T12:27:56;96131.15;;;1.12;92.57
34065;BME280;20339;49.754;20.158;2023-11-19T12:30:30;96123.02;;;1.03;92.86
34065;BME280;20339;49.754;20.158;2023-11-19T12:33:09;96128.58;;;0.92;93.93
34065;BME280;20339;49.754;20.158;2023-11-19T12:35:42;96126.44;;;0.85;94.46
34065;BME280;20339;49.754;20.158;2023-11-19T12:38:22;96110.17;;;0.83;94.88
34065;BME280;20339;49.754;20.158;2023-11-19T12:41:07;96111.86;;;0.81;95.30
34065;BME280;20339;49.754;20.158;2023-11-19T12:43:42;96105.72;;;0.83;95.23
34065;BME280;20339;49.754;20.158;2023-11-19T12:46:23;96097.61;;;0.81;95.31
34065;BME280;20339;49.754;20.158;2023-11-19T12:48:59;96092.48;;;0.77;95.46
34065;BME280;20339;49.754;20.158;2023-11-19T12:51:35;96088.64;;;0.76;95.75
34065;BME280;20339;49.754;20.158;2023-11-19T12:54:08;96077.86;;;0.77;96.08
34065;BME280;20339;49.754;20.158;2023-11-19T12:56:51;96069.78;;;0.77;96.47
34065;BME280;20339;49.754;20.158;2023-11-19T12:59:22;96058.00;;;0.81;96.81
34065;BME280;20339;49.754;20.158;2023-11-19T13:01:57;96060.70;;;0.84;97.21
34065;BME280;20339;49.754;20.158;2023-11-19T13:04:31;96058.28;;;0.86;97.59
34065;BME280;20339;49.754;20.158;2023-11-19T13:07:03;96051.70;;;0.89;98.03
34065;BME280;20339;49.754;20.158;2023-11-19T13:09:35;96048.41;;;0.89;97.94
34065;BME280;20339;49.754;20.158;2023-11-19T13:12:15;96045.61;;;0.89;98.26
34065;BME280;20339;49.754;20.158;2023-11-19T13:14:49;96040.00;;;0.94;98.55
34065;BME280;20339;49.754;20.158;2023-11-19T13:17:21;96038.08;;;0.97;98.65
34065;BME280;20339;49.754;20.158;2023-11-19T13:19:53;96040.23;;;0.98;98.61
34065;BME280;20339;49.754;20.158;2023-11-19T13:22:27;96038.80;;;0.99;98.69